createdAt,value
2023-01-20T00:01:37.132Z,2.90
2023-01-20T00:04:22.389Z,2.77
2023-01-20T00:07:07.940Z,2.50
2023-01-20T00:09:53.079Z,2.37
2023-01-20T00:12:38.441Z,3.00
2023-01-20T00:15:23.839Z,2.60
2023-01-20T00:18:09.045Z,2.60
2023-01-20T00:20:54.417Z,2.40
2023-01-20T00:23:40.952Z,2.33
2023-01-20T00:26:26.804Z,2.43
2023-01-20T00:29:12.368Z,2.80
2023-01-20T00:31:57.632Z,2.40
2023-01-20T00:34:42.901Z,2.80
2023-01-20T00:37:28.003Z,2.50
2023-01-20T00:40:13.529Z,2.57
2023-01-20T00:42:58.660Z,2.57
2023-01-20T00:45:44.062Z,2.50
2023-01-20T00:48:29.449Z,2.47
2023-01-20T00:51:14.613Z,2.40
2023-01-20T00:53:59.963Z,2.47
2023-01-20T00:56:45.199Z,2.80
2023-01-20T00:59:30.483Z,2.77
2023-01-20T01:02:15.718Z,2.43
2023-01-20T01:05:00.811Z,2.50
2023-01-20T01:07:46.152Z,2.40
2023-01-20T01:10:32.143Z,1.90
2023-01-20T01:13:17.670Z,2.20
2023-01-20T01:16:03.207Z,2.00
2023-01-20T01:18:48.983Z,2.73
2023-01-20T01:21:34.255Z,2.27
2023-01-20T01:24:19.532Z,2.13
2023-01-20T01:27:04.772Z,2.33
2023-01-20T01:29:50.039Z,2.27
2023-01-20T01:32:35.329Z,1.90
2023-01-20T01:35:20.671Z,2.13
2023-01-20T01:38:05.874Z,2.30
2023-01-20T01:40:53.119Z,2.20
2023-01-20T01:43:39.847Z,2.40
2023-01-20T01:46:25.230Z,2.07
2023-01-20T01:49:21.001Z,2.40
2023-01-20T01:52:09.285Z,1.90
2023-01-20T01:54:55.927Z,2.37
2023-01-20T01:57:41.616Z,2.27
2023-01-20T02:00:27.257Z,2.17
2023-01-20T02:03:13.184Z,1.97
2023-01-20T02:05:58.738Z,2.10
2023-01-20T02:08:43.930Z,2.20
2023-01-20T02:11:37.497Z,2.33
2023-01-20T02:14:30.666Z,2.05
2023-01-20T02:17:18.856Z,1.80
2023-01-20T02:20:41.936Z,2.30
2023-01-20T02:23:49.219Z,2.10
2023-01-20T02:27:02.667Z,2.00
2023-01-20T02:30:09.422Z,1.92
2023-01-20T02:33:24.213Z,2.00
2023-01-20T02:36:13.920Z,2.10
2023-01-20T02:39:09.319Z,2.17
2023-01-20T02:42:14.342Z,2.00
2023-01-20T02:45:06.450Z,2.10
2023-01-20T02:48:14.555Z,1.93
2023-01-20T02:51:10.441Z,1.87
2023-01-20T02:54:01.879Z,1.90
2023-01-20T02:56:49.099Z,2.07
2023-01-20T02:59:39.120Z,1.93
2023-01-20T03:02:28.518Z,1.93
2023-01-20T03:05:29.988Z,2.10
2023-01-20T03:08:17.321Z,1.97
2023-01-20T03:11:06.035Z,1.90
2023-01-20T03:14:16.658Z,2.10
2023-01-20T03:17:02.825Z,1.90
2023-01-20T03:19:48.856Z,2.03
2023-01-20T03:22:34.427Z,1.87
2023-01-20T03:25:20.552Z,1.83
2023-01-20T03:28:06.084Z,1.63
2023-01-20T03:30:55.299Z,1.80
2023-01-20T03:33:40.897Z,1.93
2023-01-20T03:36:29.782Z,1.90
2023-01-20T03:39:15.325Z,1.83
2023-01-20T03:42:00.813Z,1.80
2023-01-20T03:45:10.668Z,1.80
2023-01-20T03:48:28.444Z,1.80
2023-01-20T03:51:27.927Z,1.80
2023-01-20T03:54:18.635Z,2.10
2023-01-20T03:57:13.067Z,2.30
2023-01-20T03:59:59.138Z,1.87
2023-01-20T04:02:44.948Z,2.00
2023-01-20T04:05:30.788Z,2.13
2023-01-20T04:08:18.950Z,2.10
2023-01-20T04:11:06.836Z,1.90
2023-01-20T04:13:52.111Z,1.90
2023-01-20T04:16:37.984Z,2.13
2023-01-20T04:19:23.875Z,2.13
2023-01-20T04:22:15.699Z,2.27
2023-01-20T04:25:18.384Z,2.47
2023-01-20T04:28:03.705Z,2.10
2023-01-20T04:30:49.143Z,2.23
2023-01-20T04:33:38.550Z,2.00
2023-01-20T04:36:23.776Z,2.23
2023-01-20T04:39:09.207Z,2.17
2023-01-20T04:41:54.606Z,2.00
2023-01-20T04:44:40.037Z,1.97
2023-01-20T04:47:25.506Z,2.30
2023-01-20T04:50:12.265Z,2.20
2023-01-20T04:53:00.522Z,2.57
2023-01-20T04:55:46.408Z,2.93
2023-01-20T04:58:31.910Z,3.00
2023-01-20T05:01:17.365Z,2.60
2023-01-20T05:04:02.658Z,3.03
2023-01-20T05:06:47.947Z,2.47
2023-01-20T05:09:33.673Z,2.30
2023-01-20T05:12:19.027Z,2.40
2023-01-20T05:15:05.131Z,2.30
2023-01-20T05:17:51.258Z,2.20
2023-01-20T05:20:36.720Z,2.40
2023-01-20T05:23:22.487Z,2.20
2023-01-20T05:26:07.857Z,2.43
2023-01-20T05:28:53.595Z,2.20
2023-01-20T05:31:43.360Z,1.97
2023-01-20T05:34:29.288Z,1.80
2023-01-20T05:37:17.914Z,2.10
2023-01-20T05:40:03.619Z,1.97
2023-01-20T05:42:50.248Z,1.87
2023-01-20T05:45:35.984Z,2.27
2023-01-20T05:48:22.016Z,2.40
2023-01-20T05:51:08.499Z,2.37
2023-01-20T05:53:53.886Z,2.70
2023-01-20T05:56:39.233Z,2.47
2023-01-20T05:59:24.583Z,2.87
2023-01-20T06:02:09.742Z,2.43
2023-01-20T06:04:56.151Z,2.70
2023-01-20T06:07:41.544Z,2.50
2023-01-20T06:10:29.608Z,2.80
2023-01-20T06:13:15.260Z,2.93
2023-01-20T06:16:01.592Z,3.10
2023-01-20T06:18:47.183Z,2.57
2023-01-20T06:21:32.415Z,2.47
2023-01-20T06:24:17.634Z,2.73
2023-01-20T06:27:03.015Z,2.93
2023-01-20T06:29:48.330Z,2.87
2023-01-20T06:32:33.722Z,3.00
2023-01-20T06:35:18.862Z,2.87
2023-01-20T06:38:04.304Z,3.03
2023-01-20T06:40:49.635Z,3.10
2023-01-20T06:43:35.452Z,2.70
2023-01-20T06:46:20.851Z,2.60
2023-01-20T06:49:05.890Z,2.83
2023-01-20T06:51:51.304Z,2.80
2023-01-20T06:54:41.296Z,2.60
2023-01-20T06:57:27.674Z,2.47
2023-01-20T07:00:13.656Z,2.67
2023-01-20T07:02:59.344Z,2.37
2023-01-20T07:05:44.617Z,2.33
2023-01-20T07:08:30.048Z,2.47
2023-01-20T07:11:15.249Z,2.60
2023-01-20T07:14:01.264Z,2.17
2023-01-20T07:16:47.092Z,2.40
2023-01-20T07:19:32.718Z,2.30
2023-01-20T07:22:17.899Z,2.37
2023-01-20T07:25:03.045Z,2.50
2023-01-20T07:27:48.516Z,2.80
2023-01-20T07:30:34.072Z,2.10
2023-01-20T07:33:19.341Z,2.47
2023-01-20T07:36:06.940Z,2.80
2023-01-20T07:38:53.810Z,2.60
2023-01-20T07:41:39.196Z,2.53
2023-01-20T07:44:24.581Z,2.43
2023-01-20T07:47:09.878Z,2.07
2023-01-20T07:49:55.184Z,2.67
2023-01-20T07:52:41.115Z,2.60
2023-01-20T07:55:26.236Z,2.97
2023-01-20T07:58:11.576Z,2.87
2023-01-20T08:00:56.924Z,2.57
2023-01-20T08:03:42.943Z,2.40
2023-01-20T08:06:29.814Z,2.63
2023-01-20T08:09:15.261Z,2.77
2023-01-20T08:12:01.816Z,2.40
2023-01-20T08:14:47.209Z,2.70
2023-01-20T08:17:32.485Z,2.40
2023-01-20T08:20:19.723Z,2.20
2023-01-20T08:23:04.979Z,2.57
2023-01-20T08:25:51.644Z,2.10
2023-01-20T08:28:37.351Z,2.40
2023-01-20T08:31:24.222Z,2.30
2023-01-20T08:34:10.085Z,2.30
2023-01-20T08:36:57.498Z,2.23
2023-01-20T08:39:43.353Z,2.60
2023-01-20T08:42:29.087Z,2.47
2023-01-20T08:45:15.014Z,2.40
2023-01-20T08:48:00.702Z,2.20
2023-01-20T08:50:46.011Z,2.33
2023-01-20T08:53:31.277Z,2.30
2023-01-20T08:56:17.897Z,2.50
2023-01-20T08:59:04.321Z,2.30
2023-01-20T09:01:49.876Z,2.10
2023-01-20T09:04:37.365Z,2.40
2023-01-20T09:07:22.614Z,2.60
2023-01-20T09:10:08.802Z,2.17
2023-01-20T09:12:54.485Z,2.30
2023-01-20T09:15:39.738Z,2.20
2023-01-20T09:18:25.186Z,2.00
2023-01-20T09:21:11.359Z,2.40
2023-01-20T09:23:56.963Z,2.20
2023-01-20T09:26:42.373Z,2.20
2023-01-20T09:29:27.700Z,2.17
2023-01-20T09:32:13.360Z,2.20
2023-01-20T09:34:58.781Z,2.57
2023-01-20T09:38:02.755Z,2.20
2023-01-20T09:41:29.873Z,2.13
2023-01-20T09:44:24.563Z,2.60
2023-01-20T09:47:31.205Z,2.47
2023-01-20T09:50:44.851Z,2.63
2023-01-20T09:53:40.236Z,2.40
2023-01-20T09:56:29.686Z,2.27
2023-01-20T09:59:25.022Z,2.40
2023-01-20T10:02:18.872Z,1.80
2023-01-20T10:05:33.195Z,2.40
2023-01-20T10:09:04.217Z,2.03
2023-01-20T10:11:56.041Z,2.13
2023-01-20T10:14:50.863Z,2.10
2023-01-20T10:17:39.313Z,2.23
2023-01-20T10:20:42.266Z,2.30
2023-01-20T10:23:33.544Z,2.25
2023-01-20T10:26:31.706Z,1.93
2023-01-20T10:29:26.601Z,2.10
2023-01-20T10:32:33.361Z,2.23
2023-01-20T10:35:23.942Z,2.00
2023-01-20T10:38:22.699Z,2.07
2023-01-20T10:41:44.024Z,2.00
2023-01-20T10:44:29.533Z,1.73
2023-01-20T10:47:23.761Z,2.10
2023-01-20T10:50:23.441Z,2.13
2023-01-20T10:53:34.059Z,2.23
2023-01-20T10:56:37.965Z,2.17
2023-01-20T10:59:43.211Z,2.37
2023-01-20T11:02:32.137Z,2.00
2023-01-20T11:05:21.018Z,2.00
2023-01-20T11:08:23.411Z,2.07
2023-01-20T11:11:12.946Z,2.07
2023-01-20T11:13:59.611Z,2.10
2023-01-20T11:16:48.222Z,2.00
2023-01-20T11:19:48.957Z,2.40
2023-01-20T11:22:36.721Z,2.10
2023-01-20T11:25:27.694Z,2.00
2023-01-20T11:28:18.500Z,2.10
2023-01-20T11:31:04.844Z,1.83
2023-01-20T11:34:13.511Z,1.93
2023-01-20T11:37:04.830Z,2.33
2023-01-20T11:39:50.015Z,2.30
2023-01-20T11:42:44.966Z,2.17
2023-01-20T11:45:34.583Z,2.07
2023-01-20T11:48:21.649Z,1.93
2023-01-20T11:51:26.897Z,2.20
2023-01-20T11:54:19.757Z,2.20
2023-01-20T11:57:09.724Z,1.70
2023-01-20T11:59:55.332Z,2.13
2023-01-20T12:02:41.751Z,2.03
2023-01-20T12:06:01.347Z,2.50
2023-01-20T12:08:51.101Z,2.10
2023-01-20T12:11:59.576Z,2.10
2023-01-20T12:14:52.106Z,1.90
2023-01-20T12:17:41.183Z,1.80
2023-01-20T12:20:55.000Z,1.70
2023-01-20T12:24:30.148Z,2.07
2023-01-20T12:27:25.678Z,1.80
2023-01-20T12:30:27.734Z,1.83
2023-01-20T12:33:20.724Z,2.03
2023-01-20T12:39:29.496Z,1.97
2023-01-20T12:42:38.527Z,1.90
2023-01-20T12:45:43.418Z,1.97
2023-01-20T12:48:58.332Z,2.10
2023-01-20T12:52:03.949Z,1.67
2023-01-20T12:55:14.267Z,2.47
2023-01-20T12:58:35.783Z,2.03
2023-01-20T13:01:44.119Z,1.97
2023-01-20T13:05:06.851Z,2.10
2023-01-20T13:07:58.487Z,2.20
2023-01-20T13:10:55.929Z,1.63
2023-01-20T13:13:57.575Z,2.00
2023-01-20T13:16:54.496Z,1.80
2023-01-20T13:19:42.894Z,2.00
2023-01-20T13:22:28.704Z,2.10
2023-01-20T13:25:17.493Z,2.07
2023-01-20T13:28:04.690Z,2.00
2023-01-20T13:30:55.360Z,2.70
2023-01-20T13:33:42.509Z,2.47
2023-01-20T13:36:28.411Z,2.13
2023-01-20T13:39:43.531Z,1.70
2023-01-20T13:42:38.853Z,1.80
2023-01-20T13:45:26.518Z,2.17
2023-01-20T13:48:14.735Z,2.07
2023-01-20T13:51:15.709Z,2.03
2023-01-20T13:54:40.228Z,2.13
2023-01-20T13:57:34.983Z,2.37
2023-01-20T14:00:21.256Z,2.60
2023-01-20T14:03:19.726Z,2.90
2023-01-20T14:06:14.500Z,2.57
2023-01-20T14:09:01.585Z,2.17
2023-01-20T14:11:52.289Z,2.57
2023-01-20T14:20:22.967Z,2.60
2023-01-20T14:23:26.182Z,2.80
2023-01-20T14:26:14.579Z,2.60
2023-01-20T14:29:02.719Z,2.70
2023-01-20T14:31:47.693Z,2.47
2023-01-20T14:34:33.462Z,2.60
2023-01-20T14:43:44.627Z,1.90
2023-01-20T14:46:39.442Z,2.70
2023-01-20T14:49:31.311Z,2.50
2023-01-20T14:52:27.922Z,2.47
2023-01-20T14:55:34.880Z,2.40
2023-01-20T14:58:20.359Z,2.50
2023-01-20T15:01:06.894Z,2.40
2023-01-20T15:04:00.393Z,2.70
2023-01-20T15:06:58.151Z,2.67
2023-01-20T15:10:09.789Z,3.03
2023-01-20T15:12:55.850Z,2.70
2023-01-20T15:15:43.471Z,2.60
2023-01-20T15:18:28.728Z,3.33
2023-01-20T15:21:27.652Z,2.90
2023-01-20T15:24:35.295Z,2.93
2023-01-20T15:27:22.976Z,2.77
2023-01-20T15:30:21.137Z,3.00
2023-01-20T15:33:09.127Z,2.77
2023-01-20T15:35:57.280Z,2.70
2023-01-20T15:38:42.575Z,2.77
2023-01-20T15:41:28.037Z,3.20
2023-01-20T15:44:13.411Z,2.70
2023-01-20T15:46:58.720Z,2.53
2023-01-20T15:49:43.810Z,2.70
2023-01-20T15:52:29.220Z,2.83
2023-01-20T15:55:16.520Z,2.67
2023-01-20T15:58:04.732Z,2.63
2023-01-20T16:00:50.878Z,2.33
2023-01-20T16:03:36.270Z,2.47
2023-01-20T16:06:32.305Z,3.10
2023-01-20T16:09:25.527Z,2.70
2023-01-20T16:12:13.170Z,2.35
2023-01-20T16:14:59.718Z,2.50
2023-01-20T16:17:45.661Z,2.63
2023-01-20T16:20:31.124Z,2.70
2023-01-20T16:23:16.366Z,2.57
2023-01-20T16:26:01.911Z,2.60
2023-01-20T16:28:47.425Z,2.80
2023-01-20T16:31:33.862Z,2.53
2023-01-20T16:34:19.418Z,2.57
2023-01-20T16:37:06.165Z,2.80
2023-01-20T16:39:51.451Z,2.70
2023-01-20T16:42:36.832Z,3.07
2023-01-20T16:45:28.908Z,2.77
2023-01-20T16:48:14.816Z,2.22
2023-01-20T16:51:04.559Z,2.20
2023-01-20T16:53:49.771Z,2.80
2023-01-20T16:56:36.165Z,2.40
2023-01-20T16:59:21.324Z,2.73
2023-01-20T17:02:06.608Z,2.53
2023-01-20T17:04:52.658Z,3.43
2023-01-20T17:07:39.167Z,2.90
2023-01-20T17:10:27.609Z,2.80
2023-01-20T17:13:12.927Z,2.63
2023-01-20T17:15:59.270Z,2.97
2023-01-20T17:18:49.081Z,3.20
2023-01-20T17:21:38.426Z,3.27
2023-01-20T17:24:23.848Z,3.20
2023-01-20T17:27:09.395Z,2.80
2023-01-20T17:29:54.583Z,2.83
2023-01-20T17:32:39.937Z,2.70
2023-01-20T17:35:25.826Z,3.13
2023-01-20T17:38:11.107Z,2.60
2023-01-20T17:41:05.009Z,2.73
2023-01-20T17:43:50.762Z,2.50
2023-01-20T17:47:18.764Z,2.83
2023-01-20T17:50:17.961Z,2.83
2023-01-20T17:53:05.806Z,2.53
2023-01-20T17:55:55.201Z,2.70
2023-01-20T17:58:46.749Z,2.50
2023-01-20T18:01:33.395Z,2.80
2023-01-20T18:04:19.508Z,2.60
2023-01-20T18:07:04.832Z,2.70
2023-01-20T18:09:50.161Z,2.70
2023-01-20T18:12:35.367Z,2.57
2023-01-20T18:15:21.345Z,2.50
2023-01-20T18:18:06.689Z,2.43
2023-01-20T18:20:51.791Z,2.47
2023-01-20T18:23:39.163Z,5.17
2023-01-20T18:26:27.523Z,5.23
2023-01-20T18:29:16.392Z,4.47
2023-01-20T18:32:04.931Z,4.13
2023-01-20T18:34:50.407Z,3.63
2023-01-20T18:37:36.777Z,3.03
2023-01-20T18:40:22.111Z,3.77
2023-01-20T18:43:07.539Z,3.27
2023-01-20T18:45:53.731Z,3.50
2023-01-20T18:48:40.551Z,4.13
2023-01-20T18:51:29.651Z,3.80
2023-01-20T18:54:17.656Z,3.97
2023-01-20T18:57:03.726Z,4.70
2023-01-20T18:59:49.092Z,5.40
2023-01-20T19:02:34.423Z,6.37
2023-01-20T19:05:19.754Z,6.07
2023-01-20T19:08:08.007Z,7.87
2023-01-20T19:10:54.232Z,8.67
2023-01-20T19:13:41.657Z,8.70
2023-01-20T19:16:33.060Z,9.40
2023-01-20T19:19:19.414Z,8.73
2023-01-20T19:22:04.695Z,8.73
2023-01-20T19:24:50.312Z,8.70
2023-01-20T19:27:37.317Z,8.30
2023-01-20T19:30:23.102Z,8.23
2023-01-20T19:33:12.439Z,8.67
2023-01-20T19:36:00.628Z,7.83
2023-01-20T19:38:47.492Z,8.63
2023-01-20T19:41:35.226Z,8.20
2023-01-20T19:44:22.644Z,8.23
2023-01-20T19:47:09.343Z,7.90
2023-01-20T19:49:56.207Z,7.70
2023-01-20T19:52:43.713Z,8.30
2023-01-20T19:55:32.171Z,8.40
2023-01-20T19:58:19.089Z,7.80
2023-01-20T20:01:17.804Z,8.00
2023-01-20T20:04:08.281Z,7.33
2023-01-20T20:06:54.173Z,7.43
2023-01-20T20:09:43.289Z,7.27
2023-01-20T20:12:29.554Z,7.40
2023-01-20T20:15:16.037Z,6.33
2023-01-20T20:18:02.829Z,6.77
2023-01-20T20:20:48.870Z,7.30
2023-01-20T20:23:34.762Z,6.77
2023-01-20T20:26:22.369Z,6.83
2023-01-20T20:29:09.838Z,6.63
2023-01-20T20:31:56.248Z,5.73
2023-01-20T20:34:42.969Z,5.77
2023-01-20T20:37:28.729Z,5.83
2023-01-20T20:40:16.789Z,6.67
2023-01-20T20:43:02.891Z,7.03
2023-01-20T20:45:48.889Z,7.20
2023-01-20T20:48:39.643Z,7.20
2023-01-20T20:51:25.909Z,6.73
2023-01-20T20:54:37.308Z,6.70
2023-01-20T20:57:22.736Z,7.10
2023-01-20T21:00:10.425Z,6.67
2023-01-20T21:02:57.163Z,6.20
2023-01-20T21:05:50.955Z,6.67
2023-01-20T21:08:37.534Z,6.30
2023-01-20T21:11:34.529Z,6.00
2023-01-20T21:14:22.218Z,5.57
2023-01-20T21:17:07.656Z,6.43
2023-01-20T21:19:53.223Z,7.27
2023-01-20T21:22:38.911Z,8.00
2023-01-20T21:25:24.982Z,7.87
2023-01-20T21:28:10.357Z,8.03
2023-01-20T21:30:55.746Z,8.33
2023-01-20T21:33:42.351Z,7.90
2023-01-20T21:36:28.616Z,7.83
2023-01-20T21:39:16.220Z,7.80
2023-01-20T21:42:01.873Z,6.73
2023-01-20T21:44:47.032Z,7.27
2023-01-20T21:47:32.329Z,7.07
2023-01-20T21:50:36.074Z,6.60
2023-01-20T21:53:21.179Z,6.85
2023-01-20T21:56:06.792Z,6.23
2023-01-20T21:58:52.271Z,6.30
2023-01-20T22:01:38.238Z,6.03
2023-01-20T22:04:23.436Z,6.13
2023-01-20T22:07:08.857Z,5.67
2023-01-20T22:09:55.067Z,5.77
2023-01-20T22:12:41.350Z,6.13
2023-01-20T22:15:26.453Z,5.97
2023-01-20T22:18:11.613Z,6.53
2023-01-20T22:21:04.654Z,6.03
2023-01-20T22:23:49.849Z,5.82
2023-01-20T22:26:35.267Z,5.87
2023-01-20T22:29:21.034Z,6.13
2023-01-20T22:32:06.486Z,5.30
2023-01-20T22:34:52.064Z,5.93
2023-01-20T22:37:37.510Z,5.60
2023-01-20T22:40:22.800Z,5.50
2023-01-20T22:43:08.036Z,5.50
2023-01-20T22:45:58.735Z,5.23
2023-01-20T22:48:45.345Z,5.00
2023-01-20T22:51:31.285Z,5.00
2023-01-20T22:54:16.662Z,4.67
2023-01-20T22:57:01.870Z,4.93
2023-01-20T22:59:47.076Z,4.77
2023-01-20T23:02:32.371Z,4.90
2023-01-20T23:05:17.504Z,4.43
2023-01-20T23:08:02.879Z,5.03
2023-01-20T23:10:48.163Z,4.40
2023-01-20T23:13:35.217Z,4.33
2023-01-20T23:16:22.441Z,4.37
2023-01-20T23:19:09.230Z,5.37
2023-01-20T23:21:54.459Z,4.97
2023-01-20T23:24:39.783Z,4.77
2023-01-20T23:27:25.021Z,4.67
2023-01-20T23:30:12.830Z,4.53
2023-01-20T23:32:58.051Z,4.63
2023-01-20T23:35:43.359Z,5.30
2023-01-20T23:38:28.593Z,4.57
2023-01-20T23:41:15.065Z,4.17
2023-01-20T23:44:00.632Z,4.30
2023-01-20T23:46:45.926Z,4.27
2023-01-20T23:49:31.010Z,3.67
2023-01-20T23:52:16.123Z,4.33
2023-01-20T23:55:01.410Z,4.67
2023-01-20T23:57:46.633Z,4.20
